Impacts METAR Board
IDs:

KDCA - Washington/National, VA, US

Updated at: 0500 UTC 21 Apr 2018
Potential Impact None Slight Moderate High
Time 20/17Z 20/18Z 20/19Z 20/20Z 20/21Z 20/22Z 20/23Z 21/00Z 21/01Z 21/02Z 21/03Z 21/04Z 21/05Z
Temp54 56 58 60 60 60 59 57 56 53 53 51 49
Dewpt26 27 26 26 26 26 25 24 25 26 26 25 30
Altim30.31 30.30 30.28 30.27 30.28 30.28 30.29 30.31 30.34 30.36 30.37 30.39 30.41
VIS10 10 10 10 10 10 10 10 10 10 10 10 10
CIG-- -- -- -- -- -- -- -- -- -- -- -- --
CoverCLRCLRCLRCLRFEWCLRCLRCLRCLRCLRCLRCLRCLR
FltCatVFRVFRVFRVFRVFRVFRVFRVFRVFRVFRVFRVFRVFR
WX--------------------------
WDir32031032031034034032033031034033033060
WSpd12 14 12 16 14 16 15 11 11 6 9 6 10
WGst23 23 20 22 23 -- 20 -- -- -- -- -- --
Raw hourly METARs
KDCA 201652Z 32012G23KT 10SM CLR 12/M03 A3031 RMK AO2 SLP264 T01221033
KDCA 201752Z 31014G23KT 10SM CLR 13/M03 A3030 RMK AO2 SLP259 T01331028 10133 20056 58008
KDCA 201852Z 32012G20KT 10SM CLR 14/M03 A3028 RMK AO2 SLP253 T01441033
KDCA 201952Z 31016G22KT 10SM CLR 16/M03 A3027 RMK AO2 SLP251 T01561033
KDCA 202052Z 34014G23KT 10SM FEW060 16/M03 A3028 RMK AO2 SLP252 T01561033 55007
KDCA 202152Z 34016KT 10SM CLR 16/M03 A3028 RMK AO2 SLP255 T01561033
KDCA 202252Z 32015G20KT 10SM CLR 15/M04 A3029 RMK AO2 SLP256 T01501039
KDCA 202352Z 33011KT 10SM CLR 14/M04 A3031 RMK AO2 SLP265 T01391044 10161 20133 53013
KDCA 210052Z 31011KT 10SM CLR 13/M04 A3034 RMK AO2 SLP273 T01331039
KDCA 210152Z 34006KT 10SM CLR 12/M03 A3036 RMK AO2 SLP279 T01171033
KDCA 210252Z 33009KT 10SM CLR 12/M03 A3037 RMK AO2 SLP284 T01171033 51019
KDCA 210352Z 33006KT 10SM CLR 11/M04 A3039 RMK AO2 SLP289 T01061039
KDCA 210452Z 06010KT 10SM CLR 09/M01 A3041 RMK AO2 SLP299 T00941011 401610033



Page loaded:  05:43 UTC  |   10:43 PM Pacific  |   11:43 PM Mountain  |   12:43 AM Central  |   01:43 AM Eastern

 

ADVISORIES

FORECASTS

FORECASTS

OBSERVATIONS

USER TOOLS

ABOUT US